sensor_id;sensor_type;location;lat;lon;timestamp;temperature;humidity
51021;DHT22;38907;45.562;8.856;2023-05-27T00:03:06;19.50;99.90
51021;DHT22;38907;45.562;8.856;2023-05-27T00:08:07;19.60;99.90
51021;DHT22;38907;45.562;8.856;2023-05-27T00:13:09;19.50;99.90
51021;DHT22;38907;45.562;8.856;2023-05-27T00:18:13;19.50;99.90
51021;DHT22;38907;45.562;8.856;2023-05-27T00:23:15;19.30;99.90
51021;DHT22;38907;45.562;8.856;2023-05-27T00:28:17;19.20;99.90
51021;DHT22;38907;45.562;8.856;2023-05-27T00:33:21;19.10;99.90
51021;DHT22;38907;45.562;8.856;2023-05-27T00:38:22;19.40;99.90
51021;DHT22;38907;45.562;8.856;2023-05-27T00:43:24;19.40;99.90
51021;DHT22;38907;45.562;8.856;2023-05-27T00:48:28;19.70;99.90
51021;DHT22;38907;45.562;8.856;2023-05-27T00:53:36;19.60;99.90
51021;DHT22;38907;45.562;8.856;2023-05-27T00:58:41;19.50;99.90
51021;DHT22;38907;45.562;8.856;2023-05-27T01:03:45;19.50;99.90
51021;DHT22;38907;45.562;8.856;2023-05-27T01:08:54;19.50;99.90
51021;DHT22;38907;45.562;8.856;2023-05-27T01:14:00;19.60;99.90
51021;DHT22;38907;45.562;8.856;2023-05-27T01:19:12;19.70;99.90
51021;DHT22;38907;45.562;8.856;2023-05-27T01:24:16;19.60;99.90
51021;DHT22;38907;45.562;8.856;2023-05-27T01:29:18;19.70;99.90
51021;DHT22;38907;45.562;8.856;2023-05-27T01:34:25;19.60;99.90
51021;DHT22;38907;45.562;8.856;2023-05-27T01:39:31;19.50;99.90
51021;DHT22;38907;45.562;8.856;2023-05-27T01:44:33;19.50;99.90
51021;DHT22;38907;45.562;8.856;2023-05-27T01:49:36;19.60;99.90
51021;DHT22;38907;45.562;8.856;2023-05-27T01:54:39;19.70;99.90
51021;DHT22;38907;45.562;8.856;2023-05-27T01:59:41;19.70;99.90
51021;DHT22;38907;45.562;8.856;2023-05-27T02:04:43;19.70;99.90
51021;DHT22;38907;45.562;8.856;2023-05-27T02:09:46;19.80;99.90
51021;DHT22;38907;45.562;8.856;2023-05-27T02:14:48;19.80;99.90
51021;DHT22;38907;45.562;8.856;2023-05-27T02:19:50;19.90;99.90
51021;DHT22;38907;45.562;8.856;2023-05-27T02:24:53;19.80;99.90
51021;DHT22;38907;45.562;8.856;2023-05-27T02:29:55;19.80;99.90
51021;DHT22;38907;45.562;8.856;2023-05-27T02:34:57;19.80;99.90
51021;DHT22;38907;45.562;8.856;2023-05-27T02:40:00;19.80;99.90
51021;DHT22;38907;45.562;8.856;2023-05-27T02:45:02;19.80;99.90
51021;DHT22;38907;45.562;8.856;2023-05-27T02:50:05;19.90;99.90
51021;DHT22;38907;45.562;8.856;2023-05-27T02:55:09;19.80;99.90
51021;DHT22;38907;45.562;8.856;2023-05-27T03:00:12;19.90;99.90
51021;DHT22;38907;45.562;8.856;2023-05-27T03:05:14;19.90;99.90
51021;DHT22;38907;45.562;8.856;2023-05-27T03:10:17;19.90;99.90
51021;DHT22;38907;45.562;8.856;2023-05-27T03:15:19;19.90;99.90
51021;DHT22;38907;45.562;8.856;2023-05-27T03:20:22;19.90;99.90
51021;DHT22;38907;45.562;8.856;2023-05-27T03:25:25;19.90;99.90
51021;DHT22;38907;45.562;8.856;2023-05-27T03:30:27;19.90;99.90
51021;DHT22;38907;45.562;8.856;2023-05-27T03:35:29;19.90;99.90
51021;DHT22;38907;45.562;8.856;2023-05-27T03:40:32;19.90;99.90
51021;DHT22;38907;45.562;8.856;2023-05-27T03:45:34;19.90;99.90
51021;DHT22;38907;45.562;8.856;2023-05-27T03:50:36;19.90;99.90
51021;DHT22;38907;45.562;8.856;2023-05-27T03:55:39;19.90;99.90
51021;DHT22;38907;45.562;8.856;2023-05-27T04:00:41;19.90;99.90
51021;DHT22;38907;45.562;8.856;2023-05-27T04:05:43;19.90;99.90
51021;DHT22;38907;45.562;8.856;2023-05-27T04:10:46;19.90;99.90
51021;DHT22;38907;45.562;8.856;2023-05-27T04:15:48;19.90;99.90
51021;DHT22;38907;45.562;8.856;2023-05-27T04:20:50;19.90;99.90
51021;DHT22;38907;45.562;8.856;2023-05-27T04:25:54;19.90;99.90
51021;DHT22;38907;45.562;8.856;2023-05-27T04:30:56;19.80;99.90
51021;DHT22;38907;45.562;8.856;2023-05-27T04:35:57;19.90;99.90
51021;DHT22;38907;45.562;8.856;2023-05-27T04:41:01;19.90;99.90
51021;DHT22;38907;45.562;8.856;2023-05-27T04:46:04;19.90;99.90
51021;DHT22;38907;45.562;8.856;2023-05-27T04:51:06;19.90;99.90
51021;DHT22;38907;45.562;8.856;2023-05-27T04:56:10;20.00;99.90
51021;DHT22;38907;45.562;8.856;2023-05-27T05:01:15;20.10;99.90
51021;DHT22;38907;45.562;8.856;2023-05-27T05:06:22;20.00;99.90
51021;DHT22;38907;45.562;8.856;2023-05-27T05:11:25;20.00;99.90
51021;DHT22;38907;45.562;8.856;2023-05-27T05:16:27;20.00;99.90
51021;DHT22;38907;45.562;8.856;2023-05-27T05:21:29;19.90;99.90
51021;DHT22;38907;45.562;8.856;2023-05-27T05:26:32;19.90;99.90
51021;DHT22;38907;45.562;8.856;2023-05-27T05:31:34;20.00;99.90
51021;DHT22;38907;45.562;8.856;2023-05-27T05:36:36;20.10;99.90
51021;DHT22;38907;45.562;8.856;2023-05-27T05:41:39;20.30;99.90
51021;DHT22;38907;45.562;8.856;2023-05-27T05:46:41;20.40;99.90
51021;DHT22;38907;45.562;8.856;2023-05-27T05:51:43;20.40;99.90
51021;DHT22;38907;45.562;8.856;2023-05-27T05:56:46;20.50;99.90
51021;DHT22;38907;45.562;8.856;2023-05-27T06:01:48;20.50;99.90
51021;DHT22;38907;45.562;8.856;2023-05-27T06:06:50;20.70;99.90
51021;DHT22;38907;45.562;8.856;2023-05-27T06:11:53;20.70;99.90
51021;DHT22;38907;45.562;8.856;2023-05-27T06:16:55;20.60;99.90
51021;DHT22;38907;45.562;8.856;2023-05-27T06:21:57;20.50;99.90
51021;DHT22;38907;45.562;8.856;2023-05-27T06:27:00;20.60;99.90
51021;DHT22;38907;45.562;8.856;2023-05-27T06:32:02;20.70;99.90
51021;DHT22;38907;45.562;8.856;2023-05-27T06:37:04;20.70;99.90
51021;DHT22;38907;45.562;8.856;2023-05-27T06:42:08;20.70;99.90
51021;DHT22;38907;45.562;8.856;2023-05-27T06:47:10;20.80;99.90
51021;DHT22;38907;45.562;8.856;2023-05-27T06:52:12;20.90;99.90
51021;DHT22;38907;45.562;8.856;2023-05-27T06:57:15;21.10;99.90
51021;DHT22;38907;45.562;8.856;2023-05-27T07:02:17;21.10;99.90
51021;DHT22;38907;45.562;8.856;2023-05-27T07:07:19;21.20;99.90
51021;DHT22;38907;45.562;8.856;2023-05-27T07:12:34;21.30;99.90
51021;DHT22;38907;45.562;8.856;2023-05-27T07:17:40;21.40;99.90
51021;DHT22;38907;45.562;8.856;2023-05-27T07:22:42;21.40;99.90
51021;DHT22;38907;45.562;8.856;2023-05-27T07:27:45;21.30;99.90
51021;DHT22;38907;45.562;8.856;2023-05-27T07:32:47;21.40;99.90
51021;DHT22;38907;45.562;8.856;2023-05-27T07:37:49;21.30;99.90
51021;DHT22;38907;45.562;8.856;2023-05-27T07:42:52;21.50;99.90
51021;DHT22;38907;45.562;8.856;2023-05-27T07:47:54;21.60;99.90
51021;DHT22;38907;45.562;8.856;2023-05-27T07:52:56;21.70;99.90
51021;DHT22;38907;45.562;8.856;2023-05-27T07:57:59;21.80;99.90
51021;DHT22;38907;45.562;8.856;2023-05-27T08:03:01;21.90;99.90
51021;DHT22;38907;45.562;8.856;2023-05-27T08:08:03;22.10;99.90
51021;DHT22;38907;45.562;8.856;2023-05-27T08:13:07;22.10;99.90
51021;DHT22;38907;45.562;8.856;2023-05-27T08:18:08;22.20;99.90
51021;DHT22;38907;45.562;8.856;2023-05-27T08:23:10;22.40;99.90
51021;DHT22;38907;45.562;8.856;2023-05-27T08:28:14;22.40;99.90
51021;DHT22;38907;45.562;8.856;2023-05-27T08:33:17;22.50;99.90
51021;DHT22;38907;45.562;8.856;2023-05-27T08:38:18;22.60;99.90
51021;DHT22;38907;45.562;8.856;2023-05-27T08:43:22;22.70;99.90
51021;DHT22;38907;45.562;8.856;2023-05-27T08:48:24;22.70;99.90
51021;DHT22;38907;45.562;8.856;2023-05-27T08:53:26;22.70;99.90
51021;DHT22;38907;45.562;8.856;2023-05-27T08:58:30;22.80;99.90
51021;DHT22;38907;45.562;8.856;2023-05-27T09:03:32;22.90;99.90
51021;DHT22;38907;45.562;8.856;2023-05-27T09:08:34;23.10;99.90
51021;DHT22;38907;45.562;8.856;2023-05-27T09:13:38;23.20;99.90
51021;DHT22;38907;45.562;8.856;2023-05-27T09:18:41;23.20;99.90
51021;DHT22;38907;45.562;8.856;2023-05-27T09:23:44;23.20;99.90
51021;DHT22;38907;45.562;8.856;2023-05-27T09:28:47;23.20;99.90
51021;DHT22;38907;45.562;8.856;2023-05-27T09:33:49;23.20;99.90
51021;DHT22;38907;45.562;8.856;2023-05-27T09:38:51;23.40;99.90
51021;DHT22;38907;45.562;8.856;2023-05-27T09:43:54;23.50;99.90
51021;DHT22;38907;45.562;8.856;2023-05-27T09:48:58;23.50;99.90
51021;DHT22;38907;45.562;8.856;2023-05-27T09:54:01;23.50;99.90
51021;DHT22;38907;45.562;8.856;2023-05-27T09:59:04;23.50;99.90
51021;DHT22;38907;45.562;8.856;2023-05-27T10:04:08;23.70;99.90
51021;DHT22;38907;45.562;8.856;2023-05-27T10:09:10;23.80;99.90
51021;DHT22;38907;45.562;8.856;2023-05-27T10:14:15;23.90;99.90
51021;DHT22;38907;45.562;8.856;2023-05-27T10:19:17;24.10;99.90
51021;DHT22;38907;45.562;8.856;2023-05-27T10:24:19;24.00;99.90
51021;DHT22;38907;45.562;8.856;2023-05-27T10:29:39;24.10;99.90
51021;DHT22;38907;45.562;8.856;2023-05-27T10:34:44;24.10;99.90
51021;DHT22;38907;45.562;8.856;2023-05-27T10:39:54;24.20;99.90
51021;DHT22;38907;45.562;8.856;2023-05-27T10:45:09;24.40;99.90
51021;DHT22;38907;45.562;8.856;2023-05-27T10:50:14;24.40;99.90
51021;DHT22;38907;45.562;8.856;2023-05-27T10:55:16;24.60;99.90
51021;DHT22;38907;45.562;8.856;2023-05-27T11:00:20;24.70;99.90
51021;DHT22;38907;45.562;8.856;2023-05-27T11:05:28;24.60;99.90
51021;DHT22;38907;45.562;8.856;2023-05-27T11:10:32;24.70;99.90
51021;DHT22;38907;45.562;8.856;2023-05-27T11:15:39;24.80;99.90
51021;DHT22;38907;45.562;8.856;2023-05-27T11:20:42;24.80;99.90
51021;DHT22;38907;45.562;8.856;2023-05-27T11:25:44;24.90;99.90
51021;DHT22;38907;45.562;8.856;2023-05-27T11:30:47;24.90;99.90
51021;DHT22;38907;45.562;8.856;2023-05-27T11:35:49;25.00;99.90
51021;DHT22;38907;45.562;8.856;2023-05-27T11:40:51;25.00;99.90
51021;DHT22;38907;45.562;8.856;2023-05-27T11:46:03;25.10;99.90
51021;DHT22;38907;45.562;8.856;2023-05-27T11:51:05;25.30;99.90
51021;DHT22;38907;45.562;8.856;2023-05-27T11:56:07;25.30;99.90
51021;DHT22;38907;45.562;8.856;2023-05-27T12:01:10;25.10;99.90
51021;DHT22;38907;45.562;8.856;2023-05-27T12:06:12;25.10;99.90
51021;DHT22;38907;45.562;8.856;2023-05-27T12:11:14;25.10;99.90
51021;DHT22;38907;45.562;8.856;2023-05-27T12:16:17;25.30;99.90
51021;DHT22;38907;45.562;8.856;2023-05-27T12:21:20;25.10;99.90
51021;DHT22;38907;45.562;8.856;2023-05-27T12:26:21;25.30;99.90
51021;DHT22;38907;45.562;8.856;2023-05-27T12:31:26;25.20;99.90
51021;DHT22;38907;45.562;8.856;2023-05-27T12:36:28;25.20;99.90
51021;DHT22;38907;45.562;8.856;2023-05-27T12:41:32;25.20;99.90
51021;DHT22;38907;45.562;8.856;2023-05-27T12:46:42;25.50;99.90
51021;DHT22;38907;45.562;8.856;2023-05-27T12:51:44;25.50;99.90
51021;DHT22;38907;45.562;8.856;2023-05-27T12:56:46;25.60;99.90
51021;DHT22;38907;45.562;8.856;2023-05-27T13:01:49;25.90;99.90
51021;DHT22;38907;45.562;8.856;2023-05-27T13:06:51;25.90;99.90
51021;DHT22;38907;45.562;8.856;2023-05-27T13:11:53;25.70;99.90
51021;DHT22;38907;45.562;8.856;2023-05-27T13:16:56;25.80;99.90
51021;DHT22;38907;45.562;8.856;2023-05-27T13:21:58;26.00;99.90
51021;DHT22;38907;45.562;8.856;2023-05-27T13:27:00;26.10;99.90
51021;DHT22;38907;45.562;8.856;2023-05-27T13:32:05;25.90;99.90
51021;DHT22;38907;45.562;8.856;2023-05-27T13:37:07;25.70;99.90
51021;DHT22;38907;45.562;8.856;2023-05-27T13:42:09;26.00;99.90
51021;DHT22;38907;45.562;8.856;2023-05-27T13:47:13;25.80;99.90
51021;DHT22;38907;45.562;8.856;2023-05-27T13:52:15;26.00;99.90
51021;DHT22;38907;45.562;8.856;2023-05-27T13:57:17;26.30;99.90
51021;DHT22;38907;45.562;8.856;2023-05-27T14:02:20;26.50;99.90
51021;DHT22;38907;45.562;8.856;2023-05-27T14:07:22;26.10;99.90
51021;DHT22;38907;45.562;8.856;2023-05-27T14:12:24;26.20;99.90
51021;DHT22;38907;45.562;8.856;2023-05-27T14:17:28;26.40;99.90
51021;DHT22;38907;45.562;8.856;2023-05-27T14:22:29;26.60;99.90
51021;DHT22;38907;45.562;8.856;2023-05-27T14:27:31;26.60;99.90
51021;DHT22;38907;45.562;8.856;2023-05-27T14:32:34;26.70;99.90
51021;DHT22;38907;45.562;8.856;2023-05-27T14:37:36;26.70;99.90
51021;DHT22;38907;45.562;8.856;2023-05-27T14:42:38;26.40;99.90
51021;DHT22;38907;45.562;8.856;2023-05-27T14:47:42;26.50;99.90
51021;DHT22;38907;45.562;8.856;2023-05-27T14:52:44;26.80;99.90
51021;DHT22;38907;45.562;8.856;2023-05-27T14:57:46;26.70;99.90
51021;DHT22;38907;45.562;8.856;2023-05-27T15:02:49;27.00;99.90
51021;DHT22;38907;45.562;8.856;2023-05-27T15:07:52;26.90;99.90
51021;DHT22;38907;45.562;8.856;2023-05-27T15:12:54;26.70;99.90
51021;DHT22;38907;45.562;8.856;2023-05-27T15:17:57;27.20;99.90
51021;DHT22;38907;45.562;8.856;2023-05-27T15:22:58;27.50;99.60
51021;DHT22;38907;45.562;8.856;2023-05-27T15:28:00;27.70;99.40
51021;DHT22;38907;45.562;8.856;2023-05-27T15:33:03;27.70;99.70
51021;DHT22;38907;45.562;8.856;2023-05-27T15:38:06;27.50;99.70
51021;DHT22;38907;45.562;8.856;2023-05-27T15:43:08;27.30;99.90
51021;DHT22;38907;45.562;8.856;2023-05-27T15:48:11;27.70;99.50
51021;DHT22;38907;45.562;8.856;2023-05-27T15:53:13;27.60;98.90
51021;DHT22;38907;45.562;8.856;2023-05-27T15:58:15;27.50;99.90
51021;DHT22;38907;45.562;8.856;2023-05-27T16:03:18;27.50;99.90
51021;DHT22;38907;45.562;8.856;2023-05-27T16:08:20;27.20;99.90
51021;DHT22;38907;45.562;8.856;2023-05-27T16:13:23;26.80;99.90
51021;DHT22;38907;45.562;8.856;2023-05-27T16:18:26;27.00;99.90
51021;DHT22;38907;45.562;8.856;2023-05-27T16:23:28;26.80;99.90
51021;DHT22;38907;45.562;8.856;2023-05-27T16:28:30;27.10;99.90
51021;DHT22;38907;45.562;8.856;2023-05-27T16:33:33;27.20;99.90
51021;DHT22;38907;45.562;8.856;2023-05-27T16:38:35;27.30;99.90
51021;DHT22;38907;45.562;8.856;2023-05-27T16:43:37;27.20;99.90
51021;DHT22;38907;45.562;8.856;2023-05-27T16:48:40;27.00;99.90
51021;DHT22;38907;45.562;8.856;2023-05-27T16:53:42;26.60;99.90
51021;DHT22;38907;45.562;8.856;2023-05-27T16:58:45;26.30;99.90
51021;DHT22;38907;45.562;8.856;2023-05-27T17:03:49;26.20;99.90
51021;DHT22;38907;45.562;8.856;2023-05-27T17:08:51;26.10;99.90
51021;DHT22;38907;45.562;8.856;2023-05-27T17:13:52;26.10;99.90
51021;DHT22;38907;45.562;8.856;2023-05-27T17:18:56;25.90;99.90
51021;DHT22;38907;45.562;8.856;2023-05-27T17:23:58;25.80;99.90
51021;DHT22;38907;45.562;8.856;2023-05-27T17:28:59;25.70;99.90
51021;DHT22;38907;45.562;8.856;2023-05-27T17:34:03;25.50;99.90
51021;DHT22;38907;45.562;8.856;2023-05-27T17:39:05;25.40;99.90
51021;DHT22;38907;45.562;8.856;2023-05-27T17:44:09;25.20;99.90
51021;DHT22;38907;45.562;8.856;2023-05-27T17:49:12;25.20;99.90
51021;DHT22;38907;45.562;8.856;2023-05-27T17:54:14;25.10;99.90
51021;DHT22;38907;45.562;8.856;2023-05-27T17:59:16;25.00;99.90
51021;DHT22;38907;45.562;8.856;2023-05-27T18:04:19;24.90;99.90
51021;DHT22;38907;45.562;8.856;2023-05-27T18:09:21;24.90;99.90
51021;DHT22;38907;45.562;8.856;2023-05-27T18:14:23;24.80;99.90
51021;DHT22;38907;45.562;8.856;2023-05-27T18:19:27;24.70;99.90
51021;DHT22;38907;45.562;8.856;2023-05-27T18:24:29;24.50;99.90
51021;DHT22;38907;45.562;8.856;2023-05-27T18:29:31;24.40;99.90
51021;DHT22;38907;45.562;8.856;2023-05-27T18:34:34;24.40;99.90
51021;DHT22;38907;45.562;8.856;2023-05-27T18:39:36;24.40;99.90
51021;DHT22;38907;45.562;8.856;2023-05-27T18:44:38;24.30;99.90
51021;DHT22;38907;45.562;8.856;2023-05-27T18:49:41;24.30;99.90
51021;DHT22;38907;45.562;8.856;2023-05-27T18:54:43;24.20;99.90
51021;DHT22;38907;45.562;8.856;2023-05-27T18:59:45;24.20;99.90
51021;DHT22;38907;45.562;8.856;2023-05-27T19:04:49;24.10;99.90
51021;DHT22;38907;45.562;8.856;2023-05-27T19:09:51;24.10;99.90
51021;DHT22;38907;45.562;8.856;2023-05-27T19:14:53;24.10;99.90
51021;DHT22;38907;45.562;8.856;2023-05-27T19:19:56;24.10;99.90
51021;DHT22;38907;45.562;8.856;2023-05-27T19:24:58;24.00;99.90
51021;DHT22;38907;45.562;8.856;2023-05-27T19:30:00;23.90;99.90
51021;DHT22;38907;45.562;8.856;2023-05-27T19:35:04;23.50;99.90
51021;DHT22;38907;45.562;8.856;2023-05-27T19:40:08;23.40;99.90
51021;DHT22;38907;45.562;8.856;2023-05-27T19:45:10;23.30;99.90
51021;DHT22;38907;45.562;8.856;2023-05-27T19:50:13;23.30;99.90
51021;DHT22;38907;45.562;8.856;2023-05-27T19:55:15;23.30;99.90
51021;DHT22;38907;45.562;8.856;2023-05-27T20:00:17;23.10;99.90
51021;DHT22;38907;45.562;8.856;2023-05-27T20:05:20;23.00;99.90
51021;DHT22;38907;45.562;8.856;2023-05-27T20:10:22;23.00;99.90
51021;DHT22;38907;45.562;8.856;2023-05-27T20:15:25;23.00;99.90
51021;DHT22;38907;45.562;8.856;2023-05-27T20:20:28;22.90;99.90
51021;DHT22;38907;45.562;8.856;2023-05-27T20:25:32;22.60;99.90
51021;DHT22;38907;45.562;8.856;2023-05-27T20:30:34;22.50;99.90
51021;DHT22;38907;45.562;8.856;2023-05-27T20:35:38;22.60;99.90
51021;DHT22;38907;45.562;8.856;2023-05-27T20:40:41;22.60;99.90
51021;DHT22;38907;45.562;8.856;2023-05-27T20:45:44;22.40;99.90
51021;DHT22;38907;45.562;8.856;2023-05-27T20:50:48;22.40;99.90
51021;DHT22;38907;45.562;8.856;2023-05-27T20:55:49;22.40;99.90
51021;DHT22;38907;45.562;8.856;2023-05-27T21:00:51;22.30;99.90
51021;DHT22;38907;45.562;8.856;2023-05-27T21:05:55;22.30;99.90
51021;DHT22;38907;45.562;8.856;2023-05-27T21:10:56;22.30;99.90
51021;DHT22;38907;45.562;8.856;2023-05-27T21:15:59;22.40;99.90
51021;DHT22;38907;45.562;8.856;2023-05-27T21:21:02;22.20;99.90
51021;DHT22;38907;45.562;8.856;2023-05-27T21:26:04;22.20;99.90
51021;DHT22;38907;45.562;8.856;2023-05-27T21:31:06;22.20;99.90
51021;DHT22;38907;45.562;8.856;2023-05-27T21:36:10;22.20;99.90
51021;DHT22;38907;45.562;8.856;2023-05-27T21:41:12;22.00;99.90
51021;DHT22;38907;45.562;8.856;2023-05-27T21:46:14;22.00;99.90
51021;DHT22;38907;45.562;8.856;2023-05-27T21:51:18;21.90;99.90
51021;DHT22;38907;45.562;8.856;2023-05-27T21:56:19;21.60;99.90
51021;DHT22;38907;45.562;8.856;2023-05-27T22:01:21;21.50;99.90
51021;DHT22;38907;45.562;8.856;2023-05-27T22:06:26;21.50;99.90
51021;DHT22;38907;45.562;8.856;2023-05-27T22:11:28;21.50;99.90
51021;DHT22;38907;45.562;8.856;2023-05-27T22:16:30;21.40;99.90
51021;DHT22;38907;45.562;8.856;2023-05-27T22:21:33;21.40;99.90
51021;DHT22;38907;45.562;8.856;2023-05-27T22:26:35;21.40;99.90
51021;DHT22;38907;45.562;8.856;2023-05-27T22:31:37;21.10;99.90
51021;DHT22;38907;45.562;8.856;2023-05-27T22:36:41;20.80;99.90
51021;DHT22;38907;45.562;8.856;2023-05-27T22:41:43;20.80;99.90
51021;DHT22;38907;45.562;8.856;2023-05-27T22:46:44;20.80;99.90
51021;DHT22;38907;45.562;8.856;2023-05-27T22:51:48;20.70;99.90
51021;DHT22;38907;45.562;8.856;2023-05-27T22:56:50;20.80;99.90
51021;DHT22;38907;45.562;8.856;2023-05-27T23:01:51;20.70;99.90
51021;DHT22;38907;45.562;8.856;2023-05-27T23:06:55;20.30;99.90
51021;DHT22;38907;45.562;8.856;2023-05-27T23:11:56;20.30;99.90
51021;DHT22;38907;45.562;8.856;2023-05-27T23:16:59;20.60;99.90
51021;DHT22;38907;45.562;8.856;2023-05-27T23:22:03;20.50;99.90
51021;DHT22;38907;45.562;8.856;2023-05-27T23:27:05;20.50;99.90
51021;DHT22;38907;45.562;8.856;2023-05-27T23:32:07;20.40;99.90
51021;DHT22;38907;45.562;8.856;2023-05-27T23:37:10;20.10;99.90
51021;DHT22;38907;45.562;8.856;2023-05-27T23:42:12;19.80;99.90
51021;DHT22;38907;45.562;8.856;2023-05-27T23:47:14;19.80;99.90
51021;DHT22;38907;45.562;8.856;2023-05-27T23:52:18;19.80;99.90
51021;DHT22;38907;45.562;8.856;2023-05-27T23:57:21;19.90;99.90
